createdAt,value
2022-07-29T00:01:20.534Z,98563.91
2022-07-29T00:04:26.282Z,98569.44
2022-07-29T00:07:35.472Z,98560.53
2022-07-29T00:10:40.886Z,98562.19
2022-07-29T00:13:50.893Z,98557.88
2022-07-29T00:16:56.625Z,98566.56
2022-07-29T00:20:03.163Z,98558.59
2022-07-29T00:23:13.710Z,98551.59
2022-07-29T00:26:20.306Z,98549.19
2022-07-29T00:29:34.501Z,98551.28
2022-07-29T00:32:41.226Z,98550.66
2022-07-29T00:35:49.417Z,98546.22
2022-07-29T00:38:58.845Z,98548.25
2022-07-29T00:42:06.965Z,98550.19
2022-07-29T00:45:13.951Z,98544.19
2022-07-29T00:48:19.393Z,98542.72
2022-07-29T00:51:25.876Z,98546.59
2022-07-29T00:54:37.172Z,98542.38
2022-07-29T00:57:50.954Z,98536.38
2022-07-29T01:00:57.087Z,98538.19
2022-07-29T01:04:03.673Z,98535.06
2022-07-29T01:07:10.044Z,98531.94
2022-07-29T01:10:20.279Z,98530.25
2022-07-29T01:13:26.048Z,98526.88
2022-07-29T01:16:37.747Z,98525.44
2022-07-29T01:19:55.104Z,98526.63
2022-07-29T01:23:31.007Z,98526.78
2022-07-29T01:26:47.840Z,98517.50
2022-07-29T01:30:00.003Z,98525.31
2022-07-29T01:33:33.675Z,98527.84
2022-07-29T01:36:43.976Z,98525.91
2022-07-29T01:39:53.303Z,98524.00
2022-07-29T01:43:01.374Z,98522.91
2022-07-29T01:46:16.866Z,98511.47
2022-07-29T01:49:26.152Z,98506.16
2022-07-29T01:52:42.166Z,98504.50
2022-07-29T01:55:50.219Z,98508.09
2022-07-29T01:58:57.680Z,98508.09
2022-07-29T02:02:10.403Z,98509.78
2022-07-29T02:05:19.864Z,98502.81
2022-07-29T02:08:26.485Z,98506.44
2022-07-29T02:11:35.497Z,98500.16
2022-07-29T02:14:56.051Z,98501.13
2022-07-29T02:18:09.480Z,98501.25
2022-07-29T02:21:16.362Z,98500.28
2022-07-29T02:24:23.218Z,98499.44
2022-07-29T02:27:32.569Z,98500.28
2022-07-29T02:30:41.236Z,98491.59
2022-07-29T02:33:51.411Z,98491.34
2022-07-29T02:36:59.914Z,98493.91
2022-07-29T02:40:08.296Z,98491.72
2022-07-29T02:43:15.857Z,98493.16
2022-07-29T02:46:29.019Z,98484.50
2022-07-29T02:49:42.636Z,98484.13
2022-07-29T02:52:51.697Z,98482.69
2022-07-29T02:56:03.366Z,98477.25
2022-07-29T02:59:14.850Z,98467.38
2022-07-29T03:02:21.777Z,98473.28
2022-07-29T03:05:30.974Z,98478.19
2022-07-29T03:08:39.591Z,98485.19
2022-07-29T03:11:50.707Z,98476.41
2022-07-29T03:14:57.994Z,98481.31
2022-07-29T03:18:06.444Z,98482.16
2022-07-29T03:21:15.639Z,98479.41
2022-07-29T03:24:34.991Z,98487.47
2022-07-29T03:27:41.719Z,98477.25
2022-07-29T03:30:47.188Z,98473.75
2022-07-29T03:33:54.252Z,98484.34
2022-07-29T03:37:03.324Z,98483.25
2022-07-29T03:40:12.296Z,98479.66
2022-07-29T03:43:20.987Z,98479.66
2022-07-29T03:46:30.743Z,98488.31
2022-07-29T03:49:40.469Z,98487.34
2022-07-29T03:52:50.372Z,98484.44
2022-07-29T03:56:03.076Z,98471.19
2022-07-29T03:59:10.452Z,98464.31
2022-07-29T04:02:21.862Z,98461.81
2022-07-29T04:05:29.155Z,98468.81
2022-07-29T04:08:37.580Z,98471.94
2022-07-29T04:12:02.146Z,98477.22
2022-07-29T04:15:10.288Z,98478.88
2022-07-29T04:18:16.479Z,98474.56
2022-07-29T04:21:22.073Z,98475.38
2022-07-29T04:24:31.921Z,98474.03
2022-07-29T04:27:57.505Z,98476.88
2022-07-29T04:31:03.697Z,98473.50
2022-07-29T04:34:10.251Z,98479.00
2022-07-29T04:37:16.473Z,98473.81
2022-07-29T04:40:25.262Z,98472.44
2022-07-29T04:43:31.436Z,98468.41
2022-07-29T04:46:42.570Z,98459.09
2022-07-29T04:49:49.062Z,98469.19
2022-07-29T04:52:55.244Z,98462.22
2022-07-29T04:56:04.345Z,98466.94
2022-07-29T04:59:10.190Z,98467.75
2022-07-29T05:02:19.502Z,98455.50
2022-07-29T05:05:24.945Z,98455.59
2022-07-29T05:08:31.266Z,98458.66
2022-07-29T05:11:39.607Z,98454.06
2022-07-29T05:14:45.903Z,98463.91
2022-07-29T05:17:51.258Z,98465.13
2022-07-29T05:20:57.560Z,98470.22
2022-07-29T05:24:06.124Z,98467.81
2022-07-29T05:27:17.554Z,98462.56
2022-07-29T05:30:23.008Z,98462.88
2022-07-29T05:33:35.700Z,98463.75
2022-07-29T05:36:45.692Z,98464.72
2022-07-29T05:39:56.986Z,98466.59
2022-07-29T05:43:06.384Z,98464.97
2022-07-29T05:46:12.621Z,98462.19
2022-07-29T05:49:27.018Z,98457.50
2022-07-29T05:52:33.653Z,98456.63
2022-07-29T05:55:39.530Z,98454.81
2022-07-29T05:58:48.863Z,98454.53
2022-07-29T06:01:54.368Z,98452.03
2022-07-29T06:05:00.958Z,98446.81
2022-07-29T06:08:08.540Z,98455.50
2022-07-29T06:11:15.036Z,98441.47
2022-07-29T06:14:23.488Z,98440.97
2022-07-29T06:17:29.878Z,98444.75
2022-07-29T06:20:35.837Z,98455.59
2022-07-29T06:23:43.980Z,98453.88
2022-07-29T06:26:49.723Z,98455.25
2022-07-29T06:29:59.768Z,98458.25
2022-07-29T06:33:07.734Z,98475.66
2022-07-29T06:36:13.995Z,98467.25
2022-07-29T06:39:19.496Z,98461.09
2022-07-29T06:42:26.261Z,98470.84
2022-07-29T06:45:34.547Z,98474.38
2022-07-29T06:48:41.894Z,98460.22
2022-07-29T06:51:47.777Z,98459.19
2022-07-29T06:54:56.076Z,98464.09
2022-07-29T06:58:03.352Z,98455.06
2022-07-29T07:01:12.529Z,98456.75
2022-07-29T07:04:19.639Z,98454.19
2022-07-29T07:07:26.274Z,98453.03
2022-07-29T07:10:33.232Z,98447.41
2022-07-29T07:13:39.604Z,98452.25
2022-07-29T07:16:47.887Z,98459.38
2022-07-29T07:19:54.296Z,98451.38
2022-07-29T07:23:00.129Z,98462.44
2022-07-29T07:26:07.894Z,98457.75
2022-07-29T07:29:14.271Z,98458.03
2022-07-29T07:32:23.552Z,98452.47
2022-07-29T07:35:30.613Z,98445.91
2022-07-29T07:38:36.890Z,98452.25
2022-07-29T07:41:42.617Z,98453.00
2022-07-29T07:45:12.232Z,98451.03
2022-07-29T07:48:17.940Z,98449.09
2022-07-29T07:51:24.438Z,98451.84
2022-07-29T07:54:30.106Z,98458.53
2022-07-29T07:57:37.394Z,98447.44
2022-07-29T08:00:42.909Z,98450.41
2022-07-29T08:03:52.413Z,98449.03
2022-07-29T08:06:58.279Z,98444.00
2022-07-29T08:10:06.653Z,98447.09
2022-07-29T08:13:13.810Z,98451.75
2022-07-29T08:16:25.000Z,98455.06
2022-07-29T08:19:35.888Z,98450.19
2022-07-29T08:22:47.824Z,98449.13
2022-07-29T08:25:54.968Z,98446.44
2022-07-29T08:29:03.581Z,98445.78
2022-07-29T08:32:10.256Z,98429.66
2022-07-29T08:35:19.354Z,98443.19
2022-07-29T08:38:24.726Z,98446.41
2022-07-29T08:41:31.047Z,98435.19
2022-07-29T08:44:37.838Z,98439.94
2022-07-29T08:47:44.298Z,98435.25
2022-07-29T08:50:56.622Z,98442.34
2022-07-29T08:54:03.394Z,98456.09
2022-07-29T08:57:09.681Z,98460.81
2022-07-29T09:00:18.528Z,98455.16
2022-07-29T09:03:27.535Z,98441.72
2022-07-29T09:06:41.292Z,98451.41
2022-07-29T09:09:47.404Z,98442.94
2022-07-29T09:12:54.040Z,98442.84
2022-07-29T09:16:00.755Z,98437.63
2022-07-29T09:19:24.056Z,98428.94
2022-07-29T09:22:40.085Z,98430.09
2022-07-29T09:25:47.985Z,98426.50
2022-07-29T09:29:03.315Z,98431.50
2022-07-29T09:32:14.172Z,98439.56
2022-07-29T09:35:22.300Z,98435.19
2022-07-29T09:38:31.383Z,98412.31
2022-07-29T09:41:48.519Z,98426.31
2022-07-29T09:44:54.886Z,98419.63
2022-07-29T09:48:07.764Z,98416.31
2022-07-29T09:51:28.468Z,98406.63
2022-07-29T09:54:46.550Z,98412.28
2022-07-29T09:57:53.061Z,98410.59
2022-07-29T10:00:59.806Z,98412.50
2022-07-29T10:04:07.928Z,98405.38
2022-07-29T10:07:13.783Z,98394.75
2022-07-29T10:10:27.968Z,98403.09
2022-07-29T10:13:33.420Z,98393.59
2022-07-29T10:16:40.794Z,98410.81
2022-07-29T10:19:46.614Z,98400.44
2022-07-29T10:22:54.200Z,98399.34
2022-07-29T10:26:03.305Z,98397.72
2022-07-29T10:29:10.642Z,98392.25
2022-07-29T10:32:40.721Z,98387.84
2022-07-29T10:36:04.135Z,98388.25
2022-07-29T10:39:23.049Z,98388.16
2022-07-29T10:42:34.844Z,98376.69
2022-07-29T10:45:40.796Z,98383.84
2022-07-29T10:49:10.462Z,98383.50
2022-07-29T10:52:20.995Z,98383.56
2022-07-29T10:55:43.245Z,98383.69
2022-07-29T10:59:36.292Z,98385.47
2022-07-29T11:02:50.150Z,98382.06
2022-07-29T11:05:59.854Z,98376.44
2022-07-29T11:09:25.662Z,98375.50
2022-07-29T11:12:52.354Z,98375.19
2022-07-29T11:16:03.001Z,98384.78
2022-07-29T11:19:26.643Z,98382.47
2022-07-29T11:22:43.149Z,98382.66
2022-07-29T11:26:18.859Z,98376.47
2022-07-29T11:29:26.294Z,98381.06
2022-07-29T11:32:48.680Z,98375.06
2022-07-29T11:36:16.781Z,98381.41
2022-07-29T11:39:37.213Z,98372.94
2022-07-29T11:42:48.734Z,98375.88
2022-07-29T11:45:57.667Z,98366.34
2022-07-29T11:49:09.214Z,98376.38
2022-07-29T11:52:15.406Z,98364.94
2022-07-29T11:55:23.936Z,98361.59
2022-07-29T11:58:43.109Z,98371.38
2022-07-29T12:02:33.372Z,98364.72
2022-07-29T12:05:36.266Z,98363.47
2022-07-29T12:08:45.890Z,98357.00
2022-07-29T12:11:53.007Z,98357.41
2022-07-29T12:14:59.565Z,98364.84
2022-07-29T12:18:18.284Z,98362.38
2022-07-29T12:21:28.906Z,98363.81
2022-07-29T12:24:47.521Z,98369.66
2022-07-29T12:28:03.229Z,98358.00
2022-07-29T12:31:09.150Z,98359.28
2022-07-29T12:34:16.743Z,98363.47
2022-07-29T12:37:38.972Z,98363.44
2022-07-29T12:40:49.042Z,98359.28
2022-07-29T12:43:58.339Z,98357.97
2022-07-29T12:47:07.506Z,98356.31
2022-07-29T12:50:15.744Z,98364.72
2022-07-29T12:53:25.254Z,98358.50
2022-07-29T12:56:42.718Z,98348.50
2022-07-29T13:00:03.596Z,98355.56
2022-07-29T13:03:09.505Z,98352.44
2022-07-29T13:06:41.995Z,98329.97
2022-07-29T13:09:50.302Z,98340.53
2022-07-29T13:13:07.706Z,98337.00
2022-07-29T13:16:13.200Z,98334.22
2022-07-29T13:19:19.426Z,98338.78
2022-07-29T13:22:27.000Z,98344.97
2022-07-29T13:25:41.868Z,98326.66
2022-07-29T13:28:47.252Z,98325.81
2022-07-29T13:31:53.734Z,98314.19
2022-07-29T13:34:59.581Z,98313.34
2022-07-29T13:38:06.649Z,98295.50
2022-07-29T13:41:15.228Z,98297.84
2022-07-29T13:44:21.555Z,98294.22
2022-07-29T13:47:32.562Z,98277.81
2022-07-29T13:50:39.142Z,98272.97
2022-07-29T13:53:44.551Z,98283.19
2022-07-29T13:56:54.558Z,98282.81
2022-07-29T14:00:00.398Z,98278.66
2022-07-29T14:03:20.032Z,98277.34
2022-07-29T14:06:26.322Z,98262.19
2022-07-29T14:09:41.080Z,98262.94
2022-07-29T14:12:50.270Z,98261.38
2022-07-29T14:15:56.645Z,98256.56
2022-07-29T14:19:03.353Z,98255.09
2022-07-29T14:22:11.127Z,98257.34
2022-07-29T14:25:17.008Z,98251.34
2022-07-29T14:28:26.275Z,98248.44
2022-07-29T14:31:31.841Z,98242.41
2022-07-29T14:34:38.525Z,98244.25
2022-07-29T14:37:43.954Z,98251.28
2022-07-29T14:40:50.872Z,98255.34
2022-07-29T14:44:03.106Z,98251.16
2022-07-29T14:47:09.445Z,98240.53
2022-07-29T14:50:15.541Z,98230.81
2022-07-29T14:53:21.745Z,98225.88
2022-07-29T14:56:36.951Z,98216.53
2022-07-29T14:59:46.675Z,98228.97
2022-07-29T15:03:01.880Z,98226.50
2022-07-29T15:06:08.907Z,98220.88
2022-07-29T15:09:14.360Z,98224.22
2022-07-29T15:12:20.796Z,98223.94
2022-07-29T15:15:29.243Z,98242.09
2022-07-29T15:18:35.794Z,98244.72
2022-07-29T15:21:48.848Z,98249.81
2022-07-29T15:25:08.008Z,98249.22
2022-07-29T15:28:13.622Z,98264.75
2022-07-29T15:31:22.957Z,98259.66
2022-07-29T15:34:28.401Z,98252.84
2022-07-29T15:37:48.839Z,98253.38
2022-07-29T15:40:54.864Z,98262.41
2022-07-29T15:44:01.101Z,98258.19
2022-07-29T15:47:10.290Z,98263.94
2022-07-29T15:50:17.225Z,98267.63
2022-07-29T15:53:22.627Z,98266.41
2022-07-29T15:56:29.114Z,98260.19
2022-07-29T15:59:35.732Z,98259.41
2022-07-29T16:02:44.765Z,98253.19
2022-07-29T16:05:50.238Z,98252.72
2022-07-29T16:08:56.920Z,98255.97
2022-07-29T16:12:03.060Z,98258.41
2022-07-29T16:15:16.873Z,98247.56
2022-07-29T16:18:30.025Z,98248.75
2022-07-29T16:21:36.727Z,98245.44
2022-07-29T16:24:42.571Z,98253.22
2022-07-29T16:27:48.737Z,98254.06
2022-07-29T16:30:54.145Z,98252.03
2022-07-29T16:34:04.407Z,98253.88
2022-07-29T16:37:10.122Z,98266.38
2022-07-29T16:40:16.665Z,98274.34
2022-07-29T16:43:22.310Z,98276.66
2022-07-29T16:46:28.804Z,98273.44
2022-07-29T16:49:38.704Z,98279.97
2022-07-29T16:52:45.224Z,98267.25
2022-07-29T16:55:50.704Z,98269.22
2022-07-29T16:58:57.833Z,98276.97
2022-07-29T17:02:04.763Z,98285.47
2022-07-29T17:05:16.017Z,98286.16
2022-07-29T17:08:21.405Z,98288.72
2022-07-29T17:11:53.333Z,98300.03
2022-07-29T17:14:53.756Z,98300.75
2022-07-29T17:18:03.043Z,98301.75
2022-07-29T17:21:21.523Z,98307.09
2022-07-29T17:24:27.887Z,98304.44
2022-07-29T17:27:35.245Z,98310.09
2022-07-29T17:30:41.999Z,98313.81
2022-07-29T17:33:47.403Z,98305.06
2022-07-29T17:36:56.887Z,98301.75
2022-07-29T17:40:03.094Z,98304.75
2022-07-29T17:43:09.778Z,98305.63
2022-07-29T17:46:15.542Z,98310.53
2022-07-29T17:49:21.851Z,98308.25
2022-07-29T17:52:30.548Z,98321.97
2022-07-29T17:55:36.933Z,98325.00
2022-07-29T17:58:42.539Z,98324.66
2022-07-29T18:01:49.197Z,98324.00
2022-07-29T18:04:55.289Z,98308.59
2022-07-29T18:08:06.126Z,98309.09
2022-07-29T18:11:14.935Z,98295.66
2022-07-29T18:14:21.306Z,98291.78
2022-07-29T18:17:48.378Z,98283.06
2022-07-29T18:20:52.925Z,98292.69
2022-07-29T18:24:01.204Z,98287.91
2022-07-29T18:27:07.900Z,98284.47
2022-07-29T18:30:15.248Z,98296.09
2022-07-29T18:33:22.500Z,98297.06
2022-07-29T18:36:28.235Z,98293.19
2022-07-29T18:39:37.481Z,98293.00
2022-07-29T18:42:43.689Z,98289.13
2022-07-29T18:45:51.058Z,98297.88
2022-07-29T18:48:57.492Z,98300.47
2022-07-29T18:52:04.257Z,98291.75
2022-07-29T18:55:13.091Z,98295.31
2022-07-29T18:58:19.296Z,98280.88
2022-07-29T19:01:24.974Z,98286.19
2022-07-29T19:04:38.393Z,98303.09
2022-07-29T19:07:43.759Z,98310.41
2022-07-29T19:10:53.616Z,98321.69
2022-07-29T19:13:59.403Z,98326.03
2022-07-29T19:17:06.517Z,98330.88
2022-07-29T19:20:13.212Z,98323.06
2022-07-29T19:23:19.945Z,98321.91
2022-07-29T19:26:28.146Z,98331.06
2022-07-29T19:29:35.572Z,98332.03
2022-07-29T19:32:41.484Z,98330.47
2022-07-29T19:35:54.551Z,98337.81
2022-07-29T19:39:07.403Z,98332.19
2022-07-29T19:42:19.411Z,98332.88
2022-07-29T19:45:26.314Z,98334.41
2022-07-29T19:48:32.593Z,98331.59
2022-07-29T19:51:38.240Z,98337.59
2022-07-29T19:54:44.689Z,98339.44
2022-07-29T19:57:53.667Z,98347.28
2022-07-29T20:00:59.901Z,98352.94
2022-07-29T20:04:07.810Z,98349.72
2022-07-29T20:07:14.071Z,98355.22
2022-07-29T20:10:19.737Z,98355.34
2022-07-29T20:13:28.760Z,98340.34
2022-07-29T20:16:34.209Z,98335.88
2022-07-29T20:19:40.785Z,98314.22
2022-07-29T20:22:46.551Z,98309.41
2022-07-29T20:25:54.123Z,98301.59
2022-07-29T20:29:05.462Z,98302.94
2022-07-29T20:32:12.359Z,98297.31
2022-07-29T20:35:19.833Z,98289.97
2022-07-29T20:38:27.108Z,98284.94
2022-07-29T20:41:34.117Z,98289.84
2022-07-29T20:44:43.106Z,98282.34
2022-07-29T20:47:48.520Z,98283.19
2022-07-29T20:50:55.274Z,98281.31
2022-07-29T20:54:00.939Z,98278.81
2022-07-29T20:57:08.534Z,98264.94
2022-07-29T21:00:17.867Z,98257.63
2022-07-29T21:03:24.040Z,98259.22
2022-07-29T21:06:29.375Z,98263.19
2022-07-29T21:09:36.451Z,98249.19
2022-07-29T21:12:42.200Z,98251.84
2022-07-29T21:15:52.699Z,98245.84
2022-07-29T21:18:58.061Z,98250.31
2022-07-29T21:22:04.324Z,98242.50
2022-07-29T21:25:10.129Z,98240.13
2022-07-29T21:28:36.861Z,98243.78
2022-07-29T21:31:45.078Z,98241.41
2022-07-29T21:34:51.332Z,98250.41
2022-07-29T21:37:57.221Z,98246.91
2022-07-29T21:41:06.208Z,98241.41
2022-07-29T21:44:11.847Z,98245.47
2022-07-29T21:47:21.111Z,98248.13
2022-07-29T21:50:26.721Z,98244.63
2022-07-29T21:53:33.258Z,98242.13
2022-07-29T21:56:39.450Z,98245.94
2022-07-29T21:59:46.100Z,98249.28
2022-07-29T22:02:55.155Z,98236.09
2022-07-29T22:06:03.276Z,98240.22
2022-07-29T22:09:08.771Z,98237.28
2022-07-29T22:12:14.969Z,98238.59
2022-07-29T22:15:20.836Z,98239.66
2022-07-29T22:18:30.483Z,98228.75
2022-07-29T22:21:35.875Z,98229.38
2022-07-29T22:24:42.597Z,98236.00
2022-07-29T22:27:48.324Z,98245.97
2022-07-29T22:30:54.606Z,98239.97
2022-07-29T22:34:04.716Z,98237.00
2022-07-29T22:37:10.971Z,98235.53
2022-07-29T22:40:16.667Z,98233.72
2022-07-29T22:43:23.011Z,98229.38
2022-07-29T22:46:28.716Z,98213.41
2022-07-29T22:49:37.821Z,98213.72
2022-07-29T22:52:43.207Z,98221.31
2022-07-29T22:55:50.232Z,98210.13
2022-07-29T22:58:56.420Z,98212.94
2022-07-29T23:02:03.338Z,98201.75
2022-07-29T23:05:12.675Z,98207.38
2022-07-29T23:08:18.911Z,98203.47
2022-07-29T23:11:24.525Z,98199.16
2022-07-29T23:14:31.132Z,98189.78
2022-07-29T23:17:37.010Z,98183.41
2022-07-29T23:20:47.288Z,98173.34
2022-07-29T23:23:52.711Z,98172.25
2022-07-29T23:26:59.212Z,98163.31
2022-07-29T23:30:06.382Z,98167.84
2022-07-29T23:33:12.741Z,98155.50
2022-07-29T23:36:22.012Z,98151.88
2022-07-29T23:39:28.162Z,98143.88
2022-07-29T23:42:33.881Z,98142.88
2022-07-29T23:45:44.791Z,98140.50
2022-07-29T23:48:53.939Z,98130.88
2022-07-29T23:52:03.273Z,98134.50
2022-07-29T23:55:37.496Z,98131.47
2022-07-29T23:58:36.152Z,98123.38
